createdAt,value
2023-04-16T00:01:59.348Z,8.82
2023-04-16T00:04:26.450Z,9.11
2023-04-16T00:06:53.331Z,9.05
2023-04-16T00:09:20.206Z,9.03
2023-04-16T00:11:47.271Z,9.11
2023-04-16T00:14:14.084Z,9.01
2023-04-16T00:16:42.266Z,9.05
2023-04-16T00:19:09.645Z,8.98
2023-04-16T00:21:36.686Z,8.99
2023-04-16T00:24:03.537Z,9.07
2023-04-16T00:26:30.496Z,8.96
2023-04-16T00:28:57.316Z,8.91
2023-04-16T00:31:31.973Z,9.05
2023-04-16T00:33:59.809Z,8.97
2023-04-16T00:36:27.961Z,9.02
2023-04-16T00:38:56.192Z,8.99
2023-04-16T00:41:23.721Z,8.91
2023-04-16T00:43:51.729Z,8.91
2023-04-16T00:46:23.461Z,8.93
2023-04-16T00:48:51.704Z,8.88
2023-04-16T00:51:19.028Z,8.91
2023-04-16T00:53:46.684Z,8.87
2023-04-16T00:56:13.846Z,8.91
2023-04-16T00:58:41.157Z,9.02
2023-04-16T01:01:08.161Z,8.78
2023-04-16T01:03:39.798Z,8.79
2023-04-16T01:06:07.705Z,8.90
2023-04-16T01:08:34.862Z,8.97
2023-04-16T01:11:02.444Z,8.90
2023-04-16T01:13:29.479Z,8.80
2023-04-16T01:15:56.514Z,8.83
2023-04-16T01:18:23.931Z,8.83
2023-04-16T01:20:51.601Z,8.78
2023-04-16T01:23:19.358Z,8.82
2023-04-16T01:25:47.105Z,8.90
2023-04-16T01:28:13.993Z,8.81
2023-04-16T01:30:41.504Z,8.86
2023-04-16T01:33:28.621Z,8.86
2023-04-16T01:35:55.752Z,8.75
2023-04-16T01:38:22.565Z,8.74
2023-04-16T01:40:50.780Z,8.77
2023-04-16T01:43:17.663Z,8.61
2023-04-16T01:45:44.512Z,8.56
2023-04-16T01:48:12.014Z,8.50
2023-04-16T01:50:38.957Z,8.57
2023-04-16T01:53:05.822Z,8.54
2023-04-16T01:55:34.085Z,8.59
2023-04-16T01:58:00.914Z,8.46
2023-04-16T02:00:31.634Z,8.42
2023-04-16T02:02:59.354Z,8.41
2023-04-16T02:05:28.115Z,8.54
2023-04-16T02:07:55.113Z,8.48
2023-04-16T02:10:22.278Z,8.50
2023-04-16T02:12:49.778Z,8.56
2023-04-16T02:15:16.611Z,8.68
2023-04-16T02:17:43.965Z,8.69
2023-04-16T02:20:11.431Z,8.58
2023-04-16T02:22:45.021Z,8.54
2023-04-16T02:25:15.789Z,8.58
2023-04-16T02:27:43.220Z,8.48
2023-04-16T02:30:23.058Z,8.54
2023-04-16T02:32:50.208Z,8.60
2023-04-16T02:35:17.395Z,8.77
2023-04-16T02:37:45.281Z,8.61
2023-04-16T02:40:12.141Z,8.71
2023-04-16T02:42:39.008Z,8.70
2023-04-16T02:45:07.213Z,8.63
2023-04-16T02:47:34.490Z,8.59
2023-04-16T02:50:01.335Z,8.56
2023-04-16T02:52:28.158Z,8.68
2023-04-16T02:54:54.978Z,8.56
2023-04-16T02:57:21.974Z,8.51
2023-04-16T02:59:48.752Z,8.56
2023-04-16T03:02:16.360Z,8.48
2023-04-16T03:04:43.710Z,8.48
2023-04-16T03:07:12.579Z,8.49
2023-04-16T03:09:39.567Z,8.61
2023-04-16T03:12:06.466Z,8.54
2023-04-16T03:14:33.748Z,8.50
2023-04-16T03:17:00.684Z,8.44
2023-04-16T03:19:27.453Z,8.45
2023-04-16T03:21:54.280Z,8.43
2023-04-16T03:24:21.306Z,8.55
2023-04-16T03:26:49.149Z,8.52
2023-04-16T03:29:16.104Z,8.46
2023-04-16T03:31:43.391Z,8.34
2023-04-16T03:34:10.856Z,8.43
2023-04-16T03:36:39.305Z,8.47
2023-04-16T03:39:07.694Z,8.33
2023-04-16T03:41:36.113Z,8.37
2023-04-16T03:44:03.410Z,8.40
2023-04-16T03:46:30.638Z,8.36
2023-04-16T03:48:57.760Z,8.34
2023-04-16T03:51:25.270Z,8.36
2023-04-16T03:53:52.284Z,8.41
2023-04-16T03:56:19.433Z,8.50
2023-04-16T03:58:46.238Z,8.46
2023-04-16T04:01:13.067Z,8.58
2023-04-16T04:03:40.279Z,8.49
2023-04-16T04:06:10.550Z,8.54
2023-04-16T04:08:37.329Z,8.49
2023-04-16T04:11:05.249Z,8.47
2023-04-16T04:13:33.884Z,8.47
2023-04-16T04:16:00.724Z,8.64
2023-04-16T04:18:28.439Z,8.54
2023-04-16T04:20:55.235Z,8.50
2023-04-16T04:23:26.594Z,8.59
2023-04-16T04:25:53.400Z,8.45
2023-04-16T04:28:20.674Z,8.47
2023-04-16T04:30:47.607Z,8.48
2023-04-16T04:33:14.492Z,8.58
2023-04-16T04:35:43.263Z,8.59
2023-04-16T04:38:10.008Z,8.48
2023-04-16T04:40:36.984Z,8.44
2023-04-16T04:43:04.179Z,8.51
2023-04-16T04:45:32.137Z,8.66
2023-04-16T04:47:59.394Z,8.60
2023-04-16T04:50:26.402Z,8.75
2023-04-16T04:52:53.185Z,8.60
2023-04-16T04:55:21.017Z,8.50
2023-04-16T04:57:48.626Z,8.46
2023-04-16T05:00:15.716Z,8.54
2023-04-16T05:02:52.154Z,8.46
2023-04-16T05:05:19.229Z,8.46
2023-04-16T05:07:46.090Z,8.63
2023-04-16T05:10:13.019Z,8.51
2023-04-16T05:12:40.211Z,8.40
2023-04-16T05:15:07.734Z,8.41
2023-04-16T05:17:34.618Z,8.48
2023-04-16T05:20:01.544Z,8.47
2023-04-16T05:22:28.298Z,8.44
2023-04-16T05:24:55.115Z,8.37
2023-04-16T05:27:21.895Z,8.46
2023-04-16T05:29:48.693Z,8.36
2023-04-16T05:32:15.460Z,8.28
2023-04-16T05:34:42.291Z,8.25
2023-04-16T05:37:09.120Z,8.18
2023-04-16T05:39:35.980Z,8.06
2023-04-16T05:42:02.766Z,8.13
2023-04-16T05:44:29.826Z,8.05
2023-04-16T05:46:56.599Z,8.14
2023-04-16T05:49:23.520Z,8.08
2023-04-16T05:51:50.954Z,8.04
2023-04-16T05:54:18.063Z,7.96
2023-04-16T05:56:44.909Z,7.91
2023-04-16T05:59:12.036Z,7.98
2023-04-16T06:01:39.278Z,8.01
2023-04-16T06:04:06.288Z,7.97
2023-04-16T06:06:33.372Z,7.85
2023-04-16T06:09:00.223Z,7.87
2023-04-16T06:11:27.695Z,7.95
2023-04-16T06:13:54.576Z,7.91
2023-04-16T06:16:21.471Z,8.01
2023-04-16T06:18:48.468Z,8.24
2023-04-16T06:21:15.769Z,9.20
2023-04-16T06:23:42.595Z,9.04
2023-04-16T06:26:09.417Z,8.79
2023-04-16T06:28:36.501Z,9.02
2023-04-16T06:31:03.420Z,8.73
2023-04-16T06:33:30.331Z,8.83
2023-04-16T06:35:57.129Z,8.87
2023-04-16T06:38:24.058Z,8.88
2023-04-16T06:40:50.992Z,9.11
2023-04-16T06:43:18.071Z,9.21
2023-04-16T06:45:45.466Z,9.21
2023-04-16T06:48:12.283Z,9.25
2023-04-16T06:50:39.097Z,9.32
2023-04-16T06:53:05.971Z,9.45
2023-04-16T06:55:32.854Z,9.56
2023-04-16T06:57:59.723Z,9.55
2023-04-16T07:00:26.496Z,9.59
2023-04-16T07:02:54.680Z,9.62
2023-04-16T07:05:23.250Z,9.66
2023-04-16T07:07:50.048Z,9.66
2023-04-16T07:10:16.972Z,9.74
2023-04-16T07:12:43.974Z,9.88
2023-04-16T07:15:11.230Z,9.95
2023-04-16T07:17:38.224Z,10.04
2023-04-16T07:20:05.689Z,10.11
2023-04-16T07:22:32.559Z,10.10
2023-04-16T07:24:59.303Z,10.11
2023-04-16T07:27:26.086Z,10.02
2023-04-16T07:29:52.932Z,10.16
2023-04-16T07:32:20.308Z,10.26
2023-04-16T07:34:47.164Z,10.28
2023-04-16T07:37:13.892Z,10.30
2023-04-16T07:39:40.755Z,10.41
2023-04-16T07:42:07.585Z,10.37
2023-04-16T07:44:34.368Z,10.43
2023-04-16T07:47:02.783Z,10.51
2023-04-16T07:49:31.078Z,10.55
2023-04-16T07:51:57.895Z,10.65
2023-04-16T07:54:24.713Z,10.56
2023-04-16T07:56:51.953Z,10.63
2023-04-16T07:59:22.878Z,10.70
2023-04-16T08:01:50.351Z,10.68
2023-04-16T08:04:23.151Z,10.67
2023-04-16T08:06:51.632Z,10.76
2023-04-16T08:09:23.298Z,10.72
2023-04-16T08:11:50.217Z,10.80
2023-04-16T08:14:17.615Z,10.87
2023-04-16T08:16:45.018Z,10.93
2023-04-16T08:19:11.914Z,10.97
2023-04-16T08:21:39.035Z,11.11
2023-04-16T08:24:06.131Z,11.07
2023-04-16T08:26:32.932Z,11.08
2023-04-16T08:28:59.715Z,11.13
2023-04-16T08:31:26.565Z,11.18
2023-04-16T08:33:53.555Z,11.19
2023-04-16T08:36:20.868Z,11.15
2023-04-16T08:38:47.668Z,11.26
2023-04-16T08:41:15.078Z,11.24
2023-04-16T08:43:45.040Z,11.23
2023-04-16T08:46:12.699Z,11.27
2023-04-16T08:48:42.997Z,11.37
2023-04-16T08:51:11.024Z,11.44
2023-04-16T08:53:52.298Z,11.42
2023-04-16T08:56:20.610Z,11.57
2023-04-16T08:58:49.144Z,11.58
2023-04-16T09:01:18.168Z,11.75
2023-04-16T09:03:47.478Z,11.77
2023-04-16T09:06:16.510Z,11.67
2023-04-16T09:08:46.653Z,11.66
2023-04-16T09:11:19.321Z,11.65
2023-04-16T09:13:47.072Z,11.74
2023-04-16T09:16:15.433Z,11.72
2023-04-16T09:18:42.276Z,11.58
2023-04-16T09:21:12.872Z,11.58
2023-04-16T09:23:40.427Z,11.65
2023-04-16T09:26:07.300Z,11.64
2023-04-16T09:28:51.524Z,11.53
2023-04-16T09:31:19.557Z,11.67
2023-04-16T09:34:09.493Z,11.69
2023-04-16T09:36:36.989Z,11.62
2023-04-16T09:39:04.339Z,11.70
2023-04-16T09:41:33.392Z,11.75
2023-04-16T09:44:02.319Z,11.72
2023-04-16T09:46:35.206Z,11.71
2023-04-16T09:49:14.938Z,11.73
2023-04-16T09:51:42.571Z,11.70
2023-04-16T09:54:10.090Z,11.82
2023-04-16T09:56:43.741Z,11.89
2023-04-16T09:59:24.063Z,11.91
2023-04-16T10:01:53.461Z,11.88
2023-04-16T10:04:51.410Z,11.95
2023-04-16T10:07:19.088Z,12.01
2023-04-16T10:09:48.498Z,12.03
2023-04-16T10:12:16.118Z,11.97
2023-04-16T10:14:43.320Z,12.06
2023-04-16T10:17:10.430Z,12.17
2023-04-16T10:19:37.744Z,12.17
2023-04-16T10:22:05.257Z,12.34
2023-04-16T10:24:33.783Z,12.30
2023-04-16T10:27:00.798Z,12.27
2023-04-16T10:29:29.565Z,12.27
2023-04-16T10:31:56.967Z,12.36
2023-04-16T10:34:24.800Z,12.19
2023-04-16T10:36:53.069Z,12.14
2023-04-16T10:39:24.320Z,12.11
2023-04-16T10:41:51.823Z,12.35
2023-04-16T10:44:19.685Z,12.25
2023-04-16T10:46:50.841Z,12.18
2023-04-16T10:49:24.938Z,12.24
2023-04-16T10:52:18.276Z,12.21
2023-04-16T10:54:47.018Z,12.27
2023-04-16T10:57:18.296Z,12.36
2023-04-16T10:59:46.135Z,12.48
2023-04-16T11:02:19.711Z,12.60
2023-04-16T11:04:50.759Z,12.50
2023-04-16T11:07:22.802Z,12.80
2023-04-16T11:09:59.603Z,12.66
2023-04-16T11:12:38.055Z,12.68
2023-04-16T11:15:06.525Z,12.90
2023-04-16T11:17:40.604Z,12.94
2023-04-16T11:20:20.263Z,12.81
2023-04-16T11:22:52.251Z,13.12
2023-04-16T11:25:34.280Z,13.20
2023-04-16T11:28:02.983Z,13.09
2023-04-16T11:30:38.613Z,13.36
2023-04-16T11:33:09.456Z,13.28
2023-04-16T11:35:36.356Z,13.22
2023-04-16T11:38:03.126Z,13.44
2023-04-16T11:40:31.310Z,13.48
2023-04-16T11:43:03.293Z,13.41
2023-04-16T11:45:30.057Z,13.59
2023-04-16T11:47:58.018Z,13.78
2023-04-16T11:50:26.449Z,13.80
2023-04-16T11:52:57.457Z,13.62
2023-04-16T11:55:24.268Z,13.89
2023-04-16T11:57:51.950Z,13.87
2023-04-16T12:00:24.474Z,13.91
2023-04-16T12:02:57.273Z,13.64
2023-04-16T12:05:42.333Z,13.50
2023-04-16T12:08:10.922Z,13.47
2023-04-16T12:10:53.589Z,13.44
2023-04-16T12:13:20.753Z,13.71
2023-04-16T12:15:56.077Z,13.67
2023-04-16T12:18:26.223Z,13.89
2023-04-16T12:20:53.221Z,14.01
2023-04-16T12:23:28.024Z,14.07
2023-04-16T12:25:55.419Z,14.10
2023-04-16T12:28:29.124Z,14.04
2023-04-16T12:30:56.232Z,14.12
2023-04-16T12:33:23.201Z,13.81
2023-04-16T12:35:50.703Z,13.69
2023-04-16T12:38:17.558Z,13.84
2023-04-16T12:40:44.497Z,14.07
2023-04-16T12:43:11.295Z,13.97
2023-04-16T12:45:39.419Z,13.75
2023-04-16T12:48:06.355Z,13.83
2023-04-16T12:50:33.226Z,13.69
2023-04-16T12:53:00.137Z,14.06
2023-04-16T12:55:26.985Z,13.81
2023-04-16T12:57:54.587Z,14.09
2023-04-16T13:00:21.994Z,14.09
2023-04-16T13:02:48.956Z,14.07
2023-04-16T13:05:17.344Z,14.13
2023-04-16T13:07:44.127Z,14.09
2023-04-16T13:10:11.005Z,14.31
2023-04-16T13:12:37.855Z,14.47
2023-04-16T13:15:05.305Z,14.48
2023-04-16T13:17:32.201Z,14.80
2023-04-16T13:19:59.089Z,15.34
2023-04-16T13:22:25.874Z,15.43
2023-04-16T13:24:52.680Z,15.22
2023-04-16T13:27:19.467Z,15.29
2023-04-16T13:29:47.138Z,15.44
2023-04-16T13:32:14.848Z,15.48
2023-04-16T13:34:41.673Z,15.54
2023-04-16T13:37:08.477Z,15.77
2023-04-16T13:39:35.364Z,15.70
2023-04-16T13:42:02.746Z,15.76
2023-04-16T13:44:29.730Z,16.32
2023-04-16T13:46:56.764Z,16.60
2023-04-16T13:49:23.707Z,16.43
2023-04-16T13:51:50.715Z,15.91
2023-04-16T13:54:17.691Z,15.65
2023-04-16T13:56:44.535Z,16.09
2023-04-16T13:59:12.141Z,16.13
2023-04-16T14:01:39.997Z,16.18
2023-04-16T14:04:07.384Z,16.75
2023-04-16T14:06:34.655Z,17.08
2023-04-16T14:09:01.958Z,16.89
2023-04-16T14:11:28.844Z,17.15
2023-04-16T14:13:58.229Z,16.95
2023-04-16T14:16:25.131Z,17.02
2023-04-16T14:18:52.095Z,16.88
2023-04-16T14:21:19.169Z,16.91
2023-04-16T14:23:46.055Z,17.15
2023-04-16T14:26:13.073Z,17.21
2023-04-16T14:28:41.016Z,16.80
2023-04-16T14:31:07.885Z,16.36
2023-04-16T14:33:34.702Z,16.20
2023-04-16T14:36:03.082Z,16.20
2023-04-16T14:38:31.289Z,16.10
2023-04-16T14:40:58.198Z,15.74
2023-04-16T14:43:24.990Z,15.88
2023-04-16T14:45:52.866Z,15.67
2023-04-16T14:48:19.747Z,16.18
2023-04-16T14:50:46.674Z,16.32
2023-04-16T14:53:13.478Z,16.38
2023-04-16T14:55:40.348Z,15.95
2023-04-16T14:58:07.212Z,15.97
2023-04-16T15:00:37.034Z,16.07
2023-04-16T15:03:04.130Z,15.86
2023-04-16T15:05:31.879Z,16.65
2023-04-16T15:07:58.664Z,16.43
2023-04-16T15:10:25.629Z,16.62
2023-04-16T15:12:52.434Z,16.49
2023-04-16T15:15:19.834Z,16.32
2023-04-16T15:17:47.169Z,16.09
2023-04-16T15:20:14.515Z,16.27
2023-04-16T15:22:41.635Z,15.43
2023-04-16T15:25:09.460Z,15.59
2023-04-16T15:27:36.962Z,14.99
2023-04-16T15:30:04.397Z,15.03
2023-04-16T15:32:31.552Z,14.87
2023-04-16T15:35:00.168Z,14.80
2023-04-16T15:37:27.020Z,14.52
2023-04-16T15:39:53.880Z,14.43
2023-04-16T15:42:21.072Z,14.31
2023-04-16T15:44:48.070Z,14.19
2023-04-16T15:47:15.039Z,14.01
2023-04-16T15:49:42.155Z,14.04
2023-04-16T15:52:09.589Z,13.89
2023-04-16T15:54:36.439Z,13.99
2023-04-16T15:57:03.352Z,13.92
2023-04-16T15:59:30.148Z,13.80
2023-04-16T16:01:57.421Z,13.83
2023-04-16T16:04:26.590Z,13.81
2023-04-16T16:06:53.885Z,13.91
2023-04-16T16:09:25.811Z,13.74
2023-04-16T16:11:54.417Z,13.85
2023-04-16T16:14:22.034Z,13.81
2023-04-16T16:16:49.008Z,13.87
2023-04-16T16:19:18.308Z,13.73
2023-04-16T16:21:45.217Z,13.76
2023-04-16T16:24:12.215Z,13.80
2023-04-16T16:26:38.941Z,13.80
2023-04-16T16:29:05.967Z,13.73
2023-04-16T16:31:32.875Z,13.69
2023-04-16T16:33:59.686Z,13.61
2023-04-16T16:36:26.646Z,13.49
2023-04-16T16:38:53.455Z,13.57
2023-04-16T16:41:20.730Z,13.53
2023-04-16T16:43:47.483Z,13.58
2023-04-16T16:46:14.248Z,13.47
2023-04-16T16:48:41.203Z,13.49
2023-04-16T16:51:10.650Z,13.39
2023-04-16T16:53:37.448Z,13.27
2023-04-16T16:56:04.435Z,13.29
2023-04-16T16:58:31.688Z,13.45
2023-04-16T17:00:58.869Z,13.43
2023-04-16T17:03:25.789Z,13.50
2023-04-16T17:05:52.668Z,13.35
2023-04-16T17:08:22.297Z,13.26
2023-04-16T17:10:52.097Z,13.20
2023-04-16T17:13:21.272Z,13.17
2023-04-16T17:15:49.236Z,12.93
2023-04-16T17:18:16.604Z,12.82
2023-04-16T17:20:43.358Z,12.81
2023-04-16T17:23:10.179Z,12.72
2023-04-16T17:25:36.986Z,12.74
2023-04-16T17:28:03.936Z,12.63
2023-04-16T17:30:31.623Z,12.65
2023-04-16T17:32:58.588Z,12.47
2023-04-16T17:35:25.765Z,12.52
2023-04-16T17:37:52.539Z,12.39
2023-04-16T17:40:19.376Z,12.31
2023-04-16T17:42:46.284Z,12.24
2023-04-16T17:45:13.432Z,12.01
2023-04-16T17:47:40.439Z,11.96
2023-04-16T17:50:08.713Z,11.97
2023-04-16T17:52:35.538Z,11.87
2023-04-16T17:55:03.667Z,11.74
2023-04-16T17:57:31.046Z,11.81
2023-04-16T17:59:58.359Z,11.65
2023-04-16T18:02:25.825Z,11.59
2023-04-16T18:04:52.841Z,11.49
2023-04-16T18:07:19.835Z,11.36
2023-04-16T18:09:46.657Z,11.46
2023-04-16T18:12:13.749Z,11.44
2023-04-16T18:14:40.790Z,11.24
2023-04-16T18:17:07.722Z,11.49
2023-04-16T18:19:35.530Z,11.21
2023-04-16T18:22:02.853Z,11.07
2023-04-16T18:24:29.673Z,11.04
2023-04-16T18:26:56.851Z,11.13
2023-04-16T18:29:25.284Z,11.01
2023-04-16T18:31:52.579Z,11.09
2023-04-16T18:34:19.528Z,11.09
2023-04-16T18:36:46.422Z,10.93
2023-04-16T18:39:13.307Z,11.07
2023-04-16T18:41:43.616Z,11.21
2023-04-16T18:44:13.418Z,11.22
2023-04-16T18:46:40.223Z,11.03
2023-04-16T18:49:07.208Z,11.04
2023-04-16T18:51:34.026Z,10.99
2023-04-16T18:54:00.804Z,10.96
2023-04-16T18:56:29.869Z,10.98
2023-04-16T18:58:56.639Z,10.96
2023-04-16T19:01:23.442Z,11.06
2023-04-16T19:03:50.359Z,10.86
2023-04-16T19:06:17.294Z,10.82
2023-04-16T19:08:44.091Z,10.81
2023-04-16T19:11:10.860Z,10.76
2023-04-16T19:13:38.720Z,10.69
2023-04-16T19:16:11.150Z,10.69
2023-04-16T19:18:38.892Z,10.73
2023-04-16T19:21:07.048Z,10.62
2023-04-16T19:23:33.941Z,10.59
2023-04-16T19:26:01.705Z,10.60
2023-04-16T19:28:28.648Z,10.53
2023-04-16T19:30:56.005Z,10.57
2023-04-16T19:33:22.952Z,10.47
2023-04-16T19:35:49.770Z,10.43
2023-04-16T19:38:16.747Z,10.37
2023-04-16T19:40:48.359Z,10.33
2023-04-16T19:43:15.441Z,10.31
2023-04-16T19:45:53.460Z,10.45
2023-04-16T19:48:21.583Z,10.31
2023-04-16T19:50:48.614Z,10.31
2023-04-16T19:53:17.313Z,10.47
2023-04-16T19:55:44.223Z,10.68
2023-04-16T19:58:11.063Z,10.65
2023-04-16T20:00:38.986Z,10.31
2023-04-16T20:03:06.444Z,10.34
2023-04-16T20:05:33.449Z,10.27
2023-04-16T20:08:00.409Z,10.38
2023-04-16T20:10:27.941Z,10.22
2023-04-16T20:12:54.865Z,10.34
2023-04-16T20:15:21.832Z,10.21
2023-04-16T20:17:48.725Z,10.40
2023-04-16T20:20:16.512Z,10.36
2023-04-16T20:22:43.904Z,10.28
2023-04-16T20:25:11.560Z,10.18
2023-04-16T20:27:38.602Z,10.18
2023-04-16T20:30:06.458Z,10.21
2023-04-16T20:32:33.537Z,10.34
2023-04-16T20:35:02.001Z,10.13
2023-04-16T20:37:29.260Z,10.08
2023-04-16T20:39:56.423Z,10.10
2023-04-16T20:42:23.513Z,10.06
2023-04-16T20:44:50.710Z,10.07
2023-04-16T20:47:17.506Z,10.08
2023-04-16T20:49:47.410Z,10.14
2023-04-16T20:52:14.818Z,10.32
2023-04-16T20:54:41.705Z,10.37
2023-04-16T20:57:08.536Z,10.30
2023-04-16T20:59:36.952Z,10.35
2023-04-16T21:02:03.900Z,10.26
2023-04-16T21:04:31.086Z,10.36
2023-04-16T21:06:58.118Z,10.31
2023-04-16T21:09:25.327Z,10.32
2023-04-16T21:11:52.130Z,10.19
2023-04-16T21:14:18.929Z,10.26
2023-04-16T21:16:46.013Z,10.28
2023-04-16T21:19:12.981Z,10.30
2023-04-16T21:21:40.432Z,10.34
2023-04-16T21:24:07.497Z,10.30
2023-04-16T21:26:34.518Z,10.10
2023-04-16T21:29:01.444Z,10.07
2023-04-16T21:31:28.369Z,10.05
2023-04-16T21:33:55.240Z,10.15
2023-04-16T21:36:22.088Z,10.18
2023-04-16T21:38:48.954Z,10.17
2023-04-16T21:41:16.973Z,10.16
2023-04-16T21:43:44.002Z,10.14
2023-04-16T21:46:10.905Z,10.10
2023-04-16T21:48:37.716Z,10.22
2023-04-16T21:51:08.292Z,10.16
2023-04-16T21:53:35.377Z,10.29
2023-04-16T21:56:03.620Z,10.23
2023-04-16T21:58:30.640Z,10.12
2023-04-16T22:00:57.435Z,10.22
2023-04-16T22:03:28.095Z,10.13
2023-04-16T22:06:01.155Z,10.14
2023-04-16T22:08:29.129Z,10.24
2023-04-16T22:11:03.177Z,10.21
2023-04-16T22:13:32.423Z,10.22
2023-04-16T22:16:03.403Z,10.17
2023-04-16T22:18:33.779Z,10.19
2023-04-16T22:21:01.563Z,10.15
2023-04-16T22:23:28.725Z,10.17
2023-04-16T22:25:56.308Z,10.14
2023-04-16T22:28:23.292Z,10.19
2023-04-16T22:30:50.083Z,10.17
2023-04-16T22:33:17.004Z,10.14
2023-04-16T22:35:43.867Z,10.16
2023-04-16T22:38:10.802Z,10.09
2023-04-16T22:40:37.738Z,10.13
2023-04-16T22:43:05.333Z,10.13
2023-04-16T22:45:32.238Z,10.12
2023-04-16T22:47:59.120Z,10.11
2023-04-16T22:50:25.927Z,10.06
2023-04-16T22:52:52.765Z,10.12
2023-04-16T22:55:19.629Z,9.99
2023-04-16T22:57:47.639Z,10.01
2023-04-16T23:00:16.794Z,10.03
2023-04-16T23:02:44.396Z,9.96
2023-04-16T23:05:11.888Z,9.99
2023-04-16T23:07:39.067Z,9.85
2023-04-16T23:10:08.314Z,9.89
2023-04-16T23:12:37.508Z,9.91
2023-04-16T23:15:06.754Z,9.88
2023-04-16T23:17:35.127Z,9.91
2023-04-16T23:20:02.532Z,9.90
2023-04-16T23:22:29.413Z,9.94
2023-04-16T23:24:56.366Z,9.83
2023-04-16T23:27:23.174Z,9.81
2023-04-16T23:29:50.005Z,9.76
2023-04-16T23:32:16.882Z,9.71
2023-04-16T23:34:43.751Z,9.69
2023-04-16T23:37:10.740Z,9.83
2023-04-16T23:39:37.739Z,9.75
2023-04-16T23:42:04.586Z,9.76
2023-04-16T23:44:31.368Z,9.89
2023-04-16T23:46:59.052Z,9.89
2023-04-16T23:49:26.065Z,9.91
2023-04-16T23:51:52.930Z,9.83
2023-04-16T23:54:19.887Z,9.86
2023-04-16T23:56:46.702Z,9.89
2023-04-16T23:59:14.167Z,9.86
